sensor_id;sensor_type;location;lat;lon;timestamp;P1;durP1;ratioP1;P2;durP2;ratioP2
25653;SDS011;13511;48.622;9.230;2023-11-19T00:00:38;6.28;;;4.50;;
25653;SDS011;13511;48.622;9.230;2023-11-19T00:03:06;4.90;;;4.50;;
25653;SDS011;13511;48.622;9.230;2023-11-19T00:05:33;5.47;;;4.65;;
25653;SDS011;13511;48.622;9.230;2023-11-19T00:07:59;7.32;;;4.45;;
25653;SDS011;13511;48.622;9.230;2023-11-19T00:10:25;3.90;;;3.60;;
25653;SDS011;13511;48.622;9.230;2023-11-19T00:12:51;5.50;;;4.55;;
25653;SDS011;13511;48.622;9.230;2023-11-19T00:15:17;6.30;;;5.32;;
25653;SDS011;13511;48.622;9.230;2023-11-19T00:17:46;5.40;;;4.90;;
25653;SDS011;13511;48.622;9.230;2023-11-19T00:20:13;8.68;;;5.18;;
25653;SDS011;13511;48.622;9.230;2023-11-19T00:22:39;6.38;;;4.72;;
25653;SDS011;13511;48.622;9.230;2023-11-19T00:25:05;5.60;;;4.78;;
25653;SDS011;13511;48.622;9.230;2023-11-19T00:27:31;5.20;;;4.57;;
25653;SDS011;13511;48.622;9.230;2023-11-19T00:29:57;4.15;;;3.83;;
25653;SDS011;13511;48.622;9.230;2023-11-19T00:32:23;5.70;;;4.70;;
25653;SDS011;13511;48.622;9.230;2023-11-19T00:34:50;3.88;;;3.58;;
25653;SDS011;13511;48.622;9.230;2023-11-19T00:37:16;5.43;;;3.55;;
25653;SDS011;13511;48.622;9.230;2023-11-19T00:39:42;4.03;;;3.63;;
25653;SDS011;13511;48.622;9.230;2023-11-19T00:42:11;4.47;;;4.07;;
25653;SDS011;13511;48.622;9.230;2023-11-19T00:44:37;4.05;;;3.75;;
25653;SDS011;13511;48.622;9.230;2023-11-19T00:47:03;4.38;;;3.88;;
25653;SDS011;13511;48.622;9.230;2023-11-19T00:49:30;3.58;;;3.28;;
25653;SDS011;13511;48.622;9.230;2023-11-19T00:51:57;4.82;;;3.67;;
25653;SDS011;13511;48.622;9.230;2023-11-19T00:54:24;4.00;;;3.55;;
25653;SDS011;13511;48.622;9.230;2023-11-19T00:56:51;3.78;;;3.25;;
25653;SDS011;13511;48.622;9.230;2023-11-19T00:59:17;3.53;;;3.22;;
25653;SDS011;13511;48.622;9.230;2023-11-19T01:01:43;3.90;;;3.60;;
25653;SDS011;13511;48.622;9.230;2023-11-19T01:04:09;3.97;;;3.63;;
25653;SDS011;13511;48.622;9.230;2023-11-19T01:06:35;4.38;;;3.88;;
25653;SDS011;13511;48.622;9.230;2023-11-19T01:09:02;3.42;;;3.08;;
25653;SDS011;13511;48.622;9.230;2023-11-19T01:11:28;4.30;;;3.70;;
25653;SDS011;13511;48.622;9.230;2023-11-19T01:13:54;5.38;;;3.30;;
25653;SDS011;13511;48.622;9.230;2023-11-19T01:16:20;3.28;;;3.00;;
25653;SDS011;13511;48.622;9.230;2023-11-19T01:18:47;3.33;;;3.13;;
25653;SDS011;13511;48.622;9.230;2023-11-19T01:21:13;3.83;;;3.38;;
25653;SDS011;13511;48.622;9.230;2023-11-19T01:23:39;3.78;;;3.50;;
25653;SDS011;13511;48.622;9.230;2023-11-19T01:26:08;3.72;;;3.42;;
25653;SDS011;13511;48.622;9.230;2023-11-19T01:28:35;3.25;;;3.05;;
25653;SDS011;13511;48.622;9.230;2023-11-19T01:31:01;3.53;;;3.22;;
25653;SDS011;13511;48.622;9.230;2023-11-19T01:33:28;4.47;;;2.97;;
25653;SDS011;13511;48.622;9.230;2023-11-19T01:35:54;3.40;;;3.10;;
25653;SDS011;13511;48.622;9.230;2023-11-19T01:38:23;3.70;;;3.40;;
25653;SDS011;13511;48.622;9.230;2023-11-19T01:40:49;2.83;;;2.72;;
25653;SDS011;13511;48.622;9.230;2023-11-19T01:43:31;3.20;;;3.00;;
25653;SDS011;13511;48.622;9.230;2023-11-19T01:45:58;3.10;;;2.90;;
25653;SDS011;13511;48.622;9.230;2023-11-19T01:48:24;3.15;;;2.90;;
25653;SDS011;13511;48.622;9.230;2023-11-19T01:50:50;2.80;;;2.70;;
25653;SDS011;13511;48.622;9.230;2023-11-19T01:53:17;5.25;;;2.88;;
25653;SDS011;13511;48.622;9.230;2023-11-19T01:55:43;3.22;;;3.00;;
25653;SDS011;13511;48.622;9.230;2023-11-19T01:58:09;3.08;;;2.88;;
25653;SDS011;13511;48.622;9.230;2023-11-19T02:00:37;5.38;;;3.20;;
25653;SDS011;13511;48.622;9.230;2023-11-19T02:03:03;3.00;;;2.80;;
25653;SDS011;13511;48.622;9.230;2023-11-19T02:05:32;2.45;;;2.35;;
25653;SDS011;13511;48.622;9.230;2023-11-19T02:07:58;2.90;;;2.70;;
25653;SDS011;13511;48.622;9.230;2023-11-19T02:10:24;2.25;;;2.15;;
25653;SDS011;13511;48.622;9.230;2023-11-19T02:12:50;3.17;;;2.97;;
25653;SDS011;13511;48.622;9.230;2023-11-19T02:15:16;2.80;;;2.60;;
25653;SDS011;13511;48.622;9.230;2023-11-19T02:17:44;2.55;;;2.40;;
25653;SDS011;13511;48.622;9.230;2023-11-19T02:20:10;4.97;;;2.42;;
25653;SDS011;13511;48.622;9.230;2023-11-19T02:22:39;2.22;;;2.08;;
25653;SDS011;13511;48.622;9.230;2023-11-19T02:25:11;2.20;;;2.00;;
25653;SDS011;13511;48.622;9.230;2023-11-19T02:30:04;5.18;;;2.10;;
25653;SDS011;13511;48.622;9.230;2023-11-19T02:32:33;2.03;;;1.92;;
25653;SDS011;13511;48.622;9.230;2023-11-19T02:34:59;2.97;;;2.08;;
25653;SDS011;13511;48.622;9.230;2023-11-19T02:37:25;2.50;;;2.35;;
25653;SDS011;13511;48.622;9.230;2023-11-19T02:39:51;2.22;;;2.13;;
25653;SDS011;13511;48.622;9.230;2023-11-19T02:42:17;1.90;;;1.80;;
25653;SDS011;13511;48.622;9.230;2023-11-19T02:44:44;1.95;;;1.70;;
25653;SDS011;13511;48.622;9.230;2023-11-19T02:47:10;1.95;;;1.77;;
25653;SDS011;13511;48.622;9.230;2023-11-19T02:49:36;1.75;;;1.65;;
25653;SDS011;13511;48.622;9.230;2023-11-19T02:52:02;1.90;;;1.80;;
25653;SDS011;13511;48.622;9.230;2023-11-19T02:54:30;1.73;;;1.63;;
25653;SDS011;13511;48.622;9.230;2023-11-19T02:57:00;1.63;;;1.52;;
25653;SDS011;13511;48.622;9.230;2023-11-19T02:59:46;1.50;;;1.50;;
25653;SDS011;13511;48.622;9.230;2023-11-19T03:02:12;2.17;;;2.08;;
25653;SDS011;13511;48.622;9.230;2023-11-19T03:04:40;2.00;;;1.90;;
25653;SDS011;13511;48.622;9.230;2023-11-19T03:07:08;2.45;;;2.00;;
25653;SDS011;13511;48.622;9.230;2023-11-19T03:09:34;1.58;;;1.48;;
25653;SDS011;13511;48.622;9.230;2023-11-19T03:12:01;1.85;;;1.75;;
25653;SDS011;13511;48.622;9.230;2023-11-19T03:14:27;1.60;;;1.50;;
25653;SDS011;13511;48.622;9.230;2023-11-19T03:16:53;1.70;;;1.60;;
25653;SDS011;13511;48.622;9.230;2023-11-19T03:19:19;1.92;;;1.63;;
25653;SDS011;13511;48.622;9.230;2023-11-19T03:21:46;1.40;;;1.40;;
25653;SDS011;13511;48.622;9.230;2023-11-19T03:24:13;1.48;;;1.40;;
25653;SDS011;13511;48.622;9.230;2023-11-19T03:26:40;1.48;;;1.48;;
25653;SDS011;13511;48.622;9.230;2023-11-19T03:29:07;1.35;;;1.35;;
25653;SDS011;13511;48.622;9.230;2023-11-19T03:31:33;1.70;;;1.60;;
25653;SDS011;13511;48.622;9.230;2023-11-19T03:33:59;1.45;;;1.35;;
25653;SDS011;13511;48.622;9.230;2023-11-19T03:36:31;1.70;;;1.50;;
25653;SDS011;13511;48.622;9.230;2023-11-19T03:38:57;7.35;;;1.80;;
25653;SDS011;13511;48.622;9.230;2023-11-19T03:41:23;1.52;;;1.42;;
25653;SDS011;13511;48.622;9.230;2023-11-19T03:43:49;2.58;;;1.88;;
25653;SDS011;13511;48.622;9.230;2023-11-19T03:46:16;1.90;;;1.80;;
25653;SDS011;13511;48.622;9.230;2023-11-19T03:48:42;2.28;;;1.58;;
25653;SDS011;13511;48.622;9.230;2023-11-19T03:51:08;1.15;;;1.15;;
25653;SDS011;13511;48.622;9.230;2023-11-19T03:53:35;1.50;;;1.48;;
25653;SDS011;13511;48.622;9.230;2023-11-19T03:56:01;1.33;;;1.20;;
25653;SDS011;13511;48.622;9.230;2023-11-19T03:58:27;1.52;;;1.38;;
25653;SDS011;13511;48.622;9.230;2023-11-19T04:00:53;1.88;;;1.45;;
25653;SDS011;13511;48.622;9.230;2023-11-19T04:03:19;1.50;;;1.40;;
25653;SDS011;13511;48.622;9.230;2023-11-19T04:05:45;1.30;;;1.20;;
25653;SDS011;13511;48.622;9.230;2023-11-19T04:08:11;1.70;;;1.30;;
25653;SDS011;13511;48.622;9.230;2023-11-19T04:10:37;1.42;;;1.40;;
25653;SDS011;13511;48.622;9.230;2023-11-19T04:13:03;2.10;;;1.27;;
25653;SDS011;13511;48.622;9.230;2023-11-19T04:15:29;1.30;;;1.17;;
25653;SDS011;13511;48.622;9.230;2023-11-19T04:17:55;1.30;;;1.30;;
25653;SDS011;13511;48.622;9.230;2023-11-19T04:20:21;1.30;;;1.30;;
25653;SDS011;13511;48.622;9.230;2023-11-19T04:22:47;2.17;;;1.30;;
25653;SDS011;13511;48.622;9.230;2023-11-19T04:25:13;1.38;;;1.20;;
25653;SDS011;13511;48.622;9.230;2023-11-19T04:27:40;3.30;;;1.35;;
25653;SDS011;13511;48.622;9.230;2023-11-19T04:30:06;3.30;;;1.17;;
25653;SDS011;13511;48.622;9.230;2023-11-19T04:32:32;2.28;;;1.25;;
25653;SDS011;13511;48.622;9.230;2023-11-19T04:34:58;2.08;;;1.60;;
25653;SDS011;13511;48.622;9.230;2023-11-19T04:37:24;1.40;;;1.30;;
25653;SDS011;13511;48.622;9.230;2023-11-19T04:39:50;1.00;;;1.00;;
25653;SDS011;13511;48.622;9.230;2023-11-19T04:42:16;0.82;;;0.82;;
25653;SDS011;13511;48.622;9.230;2023-11-19T04:44:43;1.27;;;1.00;;
25653;SDS011;13511;48.622;9.230;2023-11-19T04:47:09;1.33;;;1.30;;
25653;SDS011;13511;48.622;9.230;2023-11-19T04:49:39;2.33;;;1.20;;
25653;SDS011;13511;48.622;9.230;2023-11-19T04:52:05;0.80;;;0.80;;
25653;SDS011;13511;48.622;9.230;2023-11-19T04:54:31;2.92;;;0.93;;
25653;SDS011;13511;48.622;9.230;2023-11-19T04:56:57;1.30;;;0.90;;
25653;SDS011;13511;48.622;9.230;2023-11-19T04:59:23;0.70;;;0.70;;
25653;SDS011;13511;48.622;9.230;2023-11-19T05:01:49;0.73;;;0.73;;
25653;SDS011;13511;48.622;9.230;2023-11-19T05:04:15;0.73;;;0.70;;
25653;SDS011;13511;48.622;9.230;2023-11-19T05:06:43;0.95;;;0.95;;
25653;SDS011;13511;48.622;9.230;2023-11-19T05:09:09;0.73;;;0.73;;
25653;SDS011;13511;48.622;9.230;2023-11-19T05:11:38;0.50;;;0.50;;
25653;SDS011;13511;48.622;9.230;2023-11-19T05:14:04;0.95;;;0.70;;
25653;SDS011;13511;48.622;9.230;2023-11-19T05:16:30;0.73;;;0.73;;
25653;SDS011;13511;48.622;9.230;2023-11-19T05:18:56;1.35;;;0.77;;
25653;SDS011;13511;48.622;9.230;2023-11-19T05:21:22;0.75;;;0.75;;
25653;SDS011;13511;48.622;9.230;2023-11-19T05:23:49;0.77;;;0.77;;
25653;SDS011;13511;48.622;9.230;2023-11-19T05:26:21;0.68;;;0.68;;
25653;SDS011;13511;48.622;9.230;2023-11-19T05:28:48;0.77;;;0.77;;
25653;SDS011;13511;48.622;9.230;2023-11-19T05:31:16;1.00;;;1.00;;
25653;SDS011;13511;48.622;9.230;2023-11-19T05:33:42;0.70;;;0.70;;
25653;SDS011;13511;48.622;9.230;2023-11-19T05:36:08;0.70;;;0.70;;
25653;SDS011;13511;48.622;9.230;2023-11-19T05:38:35;0.90;;;0.90;;
25653;SDS011;13511;48.622;9.230;2023-11-19T05:41:01;1.10;;;1.10;;
25653;SDS011;13511;48.622;9.230;2023-11-19T05:43:27;1.05;;;0.80;;
25653;SDS011;13511;48.622;9.230;2023-11-19T05:45:53;0.70;;;0.70;;
25653;SDS011;13511;48.622;9.230;2023-11-19T05:48:19;0.60;;;0.60;;
25653;SDS011;13511;48.622;9.230;2023-11-19T05:50:45;5.78;;;0.80;;
25653;SDS011;13511;48.622;9.230;2023-11-19T05:53:12;0.82;;;0.80;;
25653;SDS011;13511;48.622;9.230;2023-11-19T05:55:39;4.10;;;0.80;;
25653;SDS011;13511;48.622;9.230;2023-11-19T05:58:13;0.75;;;0.75;;
25653;SDS011;13511;48.622;9.230;2023-11-19T06:00:39;0.80;;;0.80;;
25653;SDS011;13511;48.622;9.230;2023-11-19T06:03:06;0.60;;;0.60;;
25653;SDS011;13511;48.622;9.230;2023-11-19T06:05:33;5.35;;;0.95;;
25653;SDS011;13511;48.622;9.230;2023-11-19T06:07:59;1.60;;;0.50;;
25653;SDS011;13511;48.622;9.230;2023-11-19T06:10:25;0.50;;;0.50;;
25653;SDS011;13511;48.622;9.230;2023-11-19T06:12:56;0.85;;;0.85;;
25653;SDS011;13511;48.622;9.230;2023-11-19T06:15:22;0.82;;;0.60;;
25653;SDS011;13511;48.622;9.230;2023-11-19T06:17:48;2.17;;;0.70;;
25653;SDS011;13511;48.622;9.230;2023-11-19T06:20:14;2.13;;;0.73;;
25653;SDS011;13511;48.622;9.230;2023-11-19T06:22:42;1.73;;;0.75;;
25653;SDS011;13511;48.622;9.230;2023-11-19T06:25:10;0.60;;;0.60;;
25653;SDS011;13511;48.622;9.230;2023-11-19T06:27:37;0.57;;;0.57;;
25653;SDS011;13511;48.622;9.230;2023-11-19T06:30:03;0.55;;;0.55;;
25653;SDS011;13511;48.622;9.230;2023-11-19T06:32:30;0.70;;;0.70;;
25653;SDS011;13511;48.622;9.230;2023-11-19T06:34:57;0.60;;;0.60;;
25653;SDS011;13511;48.622;9.230;2023-11-19T06:37:23;2.22;;;0.90;;
25653;SDS011;13511;48.622;9.230;2023-11-19T06:39:49;0.93;;;0.80;;
25653;SDS011;13511;48.622;9.230;2023-11-19T06:42:15;1.42;;;0.93;;
25653;SDS011;13511;48.622;9.230;2023-11-19T06:44:42;0.80;;;0.80;;
25653;SDS011;13511;48.622;9.230;2023-11-19T06:47:08;0.80;;;0.80;;
25653;SDS011;13511;48.622;9.230;2023-11-19T06:49:34;2.50;;;0.88;;
25653;SDS011;13511;48.622;9.230;2023-11-19T06:52:00;0.80;;;0.80;;
25653;SDS011;13511;48.622;9.230;2023-11-19T06:54:26;1.10;;;1.00;;
25653;SDS011;13511;48.622;9.230;2023-11-19T06:56:52;0.90;;;0.90;;
25653;SDS011;13511;48.622;9.230;2023-11-19T06:59:18;1.17;;;1.10;;
25653;SDS011;13511;48.622;9.230;2023-11-19T07:01:44;0.68;;;0.68;;
25653;SDS011;13511;48.622;9.230;2023-11-19T07:04:10;1.70;;;0.93;;
25653;SDS011;13511;48.622;9.230;2023-11-19T07:06:39;1.13;;;0.98;;
25653;SDS011;13511;48.622;9.230;2023-11-19T07:09:06;1.00;;;1.00;;
25653;SDS011;13511;48.622;9.230;2023-11-19T07:11:38;1.25;;;1.00;;
25653;SDS011;13511;48.622;9.230;2023-11-19T07:14:05;1.10;;;1.10;;
25653;SDS011;13511;48.622;9.230;2023-11-19T07:16:34;0.70;;;0.70;;
25653;SDS011;13511;48.622;9.230;2023-11-19T07:19:02;1.10;;;1.00;;
25653;SDS011;13511;48.622;9.230;2023-11-19T07:21:28;1.05;;;1.00;;
25653;SDS011;13511;48.622;9.230;2023-11-19T07:23:54;1.17;;;1.17;;
25653;SDS011;13511;48.622;9.230;2023-11-19T07:26:21;3.42;;;2.90;;
25653;SDS011;13511;48.622;9.230;2023-11-19T07:28:47;1.00;;;1.00;;
25653;SDS011;13511;48.622;9.230;2023-11-19T07:31:13;1.40;;;1.40;;
25653;SDS011;13511;48.622;9.230;2023-11-19T07:33:39;2.22;;;1.50;;
25653;SDS011;13511;48.622;9.230;2023-11-19T07:36:08;0.88;;;0.88;;
25653;SDS011;13511;48.622;9.230;2023-11-19T07:38:34;0.90;;;0.90;;
25653;SDS011;13511;48.622;9.230;2023-11-19T07:41:00;1.02;;;0.90;;
25653;SDS011;13511;48.622;9.230;2023-11-19T07:43:26;0.80;;;0.80;;
25653;SDS011;13511;48.622;9.230;2023-11-19T07:45:52;3.38;;;1.23;;
25653;SDS011;13511;48.622;9.230;2023-11-19T07:48:18;0.90;;;0.90;;
25653;SDS011;13511;48.622;9.230;2023-11-19T07:50:51;1.67;;;1.40;;
25653;SDS011;13511;48.622;9.230;2023-11-19T07:53:18;1.80;;;1.70;;
25653;SDS011;13511;48.622;9.230;2023-11-19T07:55:44;4.10;;;1.88;;
25653;SDS011;13511;48.622;9.230;2023-11-19T07:58:10;1.73;;;1.63;;
25653;SDS011;13511;48.622;9.230;2023-11-19T08:00:36;2.90;;;2.33;;
25653;SDS011;13511;48.622;9.230;2023-11-19T08:03:03;3.70;;;3.50;;
25653;SDS011;13511;48.622;9.230;2023-11-19T08:05:29;2.63;;;2.53;;
25653;SDS011;13511;48.622;9.230;2023-11-19T08:07:55;3.85;;;1.60;;
25653;SDS011;13511;48.622;9.230;2023-11-19T08:10:21;2.58;;;1.17;;
25653;SDS011;13511;48.622;9.230;2023-11-19T08:12:48;2.40;;;1.30;;
25653;SDS011;13511;48.622;9.230;2023-11-19T08:15:14;2.75;;;1.48;;
25653;SDS011;13511;48.622;9.230;2023-11-19T08:17:40;3.80;;;2.70;;
25653;SDS011;13511;48.622;9.230;2023-11-19T08:20:07;0.90;;;0.90;;
25653;SDS011;13511;48.622;9.230;2023-11-19T08:22:35;1.10;;;1.00;;
25653;SDS011;13511;48.622;9.230;2023-11-19T08:25:03;1.17;;;1.15;;
25653;SDS011;13511;48.622;9.230;2023-11-19T08:27:29;1.15;;;1.00;;
25653;SDS011;13511;48.622;9.230;2023-11-19T08:29:55;0.80;;;0.80;;
25653;SDS011;13511;48.622;9.230;2023-11-19T08:32:22;1.58;;;1.48;;
25653;SDS011;13511;48.622;9.230;2023-11-19T08:34:48;1.70;;;1.52;;
25653;SDS011;13511;48.622;9.230;2023-11-19T08:37:14;0.90;;;0.90;;
25653;SDS011;13511;48.622;9.230;2023-11-19T08:39:42;1.10;;;1.10;;
25653;SDS011;13511;48.622;9.230;2023-11-19T08:42:08;4.85;;;1.10;;
25653;SDS011;13511;48.622;9.230;2023-11-19T08:44:35;1.02;;;1.02;;
25653;SDS011;13511;48.622;9.230;2023-11-19T08:47:01;1.00;;;1.00;;
25653;SDS011;13511;48.622;9.230;2023-11-19T08:49:27;1.00;;;1.00;;
25653;SDS011;13511;48.622;9.230;2023-11-19T08:51:53;1.38;;;1.00;;
25653;SDS011;13511;48.622;9.230;2023-11-19T08:54:19;3.05;;;1.00;;
25653;SDS011;13511;48.622;9.230;2023-11-19T08:56:46;3.55;;;1.08;;
25653;SDS011;13511;48.622;9.230;2023-11-19T08:59:12;1.10;;;1.10;;
25653;SDS011;13511;48.622;9.230;2023-11-19T09:01:38;1.40;;;1.23;;
25653;SDS011;13511;48.622;9.230;2023-11-19T09:04:04;1.73;;;1.30;;
25653;SDS011;13511;48.622;9.230;2023-11-19T09:06:31;1.00;;;1.00;;
25653;SDS011;13511;48.622;9.230;2023-11-19T09:08:57;1.33;;;1.00;;
25653;SDS011;13511;48.622;9.230;2023-11-19T09:11:27;0.95;;;0.90;;
25653;SDS011;13511;48.622;9.230;2023-11-19T09:13:52;0.85;;;0.85;;
25653;SDS011;13511;48.622;9.230;2023-11-19T09:16:18;1.45;;;0.90;;
25653;SDS011;13511;48.622;9.230;2023-11-19T09:18:44;0.95;;;0.95;;
25653;SDS011;13511;48.622;9.230;2023-11-19T09:21:11;1.00;;;1.00;;
25653;SDS011;13511;48.622;9.230;2023-11-19T09:23:37;2.33;;;1.10;;
25653;SDS011;13511;48.622;9.230;2023-11-19T09:26:04;1.77;;;0.90;;
25653;SDS011;13511;48.622;9.230;2023-11-19T09:28:30;2.63;;;1.00;;
25653;SDS011;13511;48.622;9.230;2023-11-19T09:30:56;1.30;;;1.05;;
25653;SDS011;13511;48.622;9.230;2023-11-19T09:33:23;1.02;;;1.02;;
25653;SDS011;13511;48.622;9.230;2023-11-19T09:35:49;2.50;;;0.93;;
25653;SDS011;13511;48.622;9.230;2023-11-19T09:38:16;0.90;;;0.90;;
25653;SDS011;13511;48.622;9.230;2023-11-19T09:40:42;0.90;;;0.90;;
25653;SDS011;13511;48.622;9.230;2023-11-19T09:43:08;1.33;;;0.90;;
25653;SDS011;13511;48.622;9.230;2023-11-19T09:45:43;1.10;;;0.90;;
25653;SDS011;13511;48.622;9.230;2023-11-19T09:48:14;1.00;;;1.00;;
25653;SDS011;13511;48.622;9.230;2023-11-19T09:50:42;1.20;;;0.98;;
25653;SDS011;13511;48.622;9.230;2023-11-19T09:53:08;1.30;;;1.13;;
25653;SDS011;13511;48.622;9.230;2023-11-19T09:55:34;1.00;;;1.00;;
25653;SDS011;13511;48.622;9.230;2023-11-19T09:58:00;2.55;;;1.10;;
25653;SDS011;13511;48.622;9.230;2023-11-19T10:00:27;0.95;;;0.95;;
25653;SDS011;13511;48.622;9.230;2023-11-19T10:02:53;1.88;;;1.00;;
25653;SDS011;13511;48.622;9.230;2023-11-19T10:05:19;1.85;;;0.90;;
25653;SDS011;13511;48.622;9.230;2023-11-19T10:07:45;0.82;;;0.82;;
25653;SDS011;13511;48.622;9.230;2023-11-19T10:10:12;0.82;;;0.82;;
25653;SDS011;13511;48.622;9.230;2023-11-19T10:15:09;1.13;;;0.90;;
25653;SDS011;13511;48.622;9.230;2023-11-19T10:17:39;0.93;;;0.93;;
25653;SDS011;13511;48.622;9.230;2023-11-19T10:20:05;1.90;;;0.88;;
25653;SDS011;13511;48.622;9.230;2023-11-19T10:22:31;1.05;;;1.05;;
25653;SDS011;13511;48.622;9.230;2023-11-19T10:25:02;1.02;;;0.90;;
25653;SDS011;13511;48.622;9.230;2023-11-19T10:27:28;0.90;;;0.90;;
25653;SDS011;13511;48.622;9.230;2023-11-19T10:29:54;1.02;;;0.95;;
25653;SDS011;13511;48.622;9.230;2023-11-19T10:32:25;1.08;;;1.08;;
25653;SDS011;13511;48.622;9.230;2023-11-19T10:34:51;1.58;;;0.90;;
25653;SDS011;13511;48.622;9.230;2023-11-19T10:37:29;3.05;;;1.10;;
25653;SDS011;13511;48.622;9.230;2023-11-19T10:39:57;0.90;;;0.90;;
25653;SDS011;13511;48.622;9.230;2023-11-19T10:42:23;0.90;;;0.90;;
25653;SDS011;13511;48.622;9.230;2023-11-19T10:44:49;0.90;;;0.90;;
25653;SDS011;13511;48.622;9.230;2023-11-19T10:47:15;1.38;;;1.10;;
25653;SDS011;13511;48.622;9.230;2023-11-19T10:49:43;1.00;;;1.00;;
25653;SDS011;13511;48.622;9.230;2023-11-19T10:52:11;1.25;;;1.10;;
25653;SDS011;13511;48.622;9.230;2023-11-19T10:54:38;1.00;;;1.00;;
25653;SDS011;13511;48.622;9.230;2023-11-19T10:57:06;1.35;;;1.35;;
25653;SDS011;13511;48.622;9.230;2023-11-19T10:59:35;1.20;;;1.20;;
25653;SDS011;13511;48.622;9.230;2023-11-19T11:02:03;1.20;;;1.20;;
25653;SDS011;13511;48.622;9.230;2023-11-19T11:04:31;2.90;;;1.17;;
25653;SDS011;13511;48.622;9.230;2023-11-19T11:06:59;1.30;;;1.30;;
25653;SDS011;13511;48.622;9.230;2023-11-19T11:09:26;1.88;;;1.30;;
25653;SDS011;13511;48.622;9.230;2023-11-19T11:11:55;1.10;;;1.10;;
25653;SDS011;13511;48.622;9.230;2023-11-19T11:14:23;1.27;;;1.20;;
25653;SDS011;13511;48.622;9.230;2023-11-19T11:16:50;1.20;;;1.20;;
25653;SDS011;13511;48.622;9.230;2023-11-19T11:19:16;2.58;;;1.10;;
25653;SDS011;13511;48.622;9.230;2023-11-19T11:21:44;1.80;;;1.50;;
25653;SDS011;13511;48.622;9.230;2023-11-19T11:26:53;2.80;;;1.33;;
25653;SDS011;13511;48.622;9.230;2023-11-19T11:29:35;3.90;;;1.58;;
25653;SDS011;13511;48.622;9.230;2023-11-19T11:32:19;1.30;;;1.30;;
25653;SDS011;13511;48.622;9.230;2023-11-19T11:37:39;1.13;;;1.13;;
25653;SDS011;13511;48.622;9.230;2023-11-19T11:40:13;1.70;;;1.40;;
25653;SDS011;13511;48.622;9.230;2023-11-19T11:42:41;1.33;;;1.27;;
25653;SDS011;13511;48.622;9.230;2023-11-19T11:45:10;2.40;;;1.20;;
25653;SDS011;13511;48.622;9.230;2023-11-19T11:55:36;1.38;;;1.27;;
25653;SDS011;13511;48.622;9.230;2023-11-19T11:58:03;1.30;;;1.30;;
25653;SDS011;13511;48.622;9.230;2023-11-19T12:00:29;1.38;;;1.33;;
25653;SDS011;13511;48.622;9.230;2023-11-19T12:02:59;1.55;;;1.35;;
25653;SDS011;13511;48.622;9.230;2023-11-19T12:05:26;3.35;;;1.80;;
25653;SDS011;13511;48.622;9.230;2023-11-19T12:08:03;1.30;;;1.30;;
25653;SDS011;13511;48.622;9.230;2023-11-19T12:10:32;2.40;;;1.30;;
25653;SDS011;13511;48.622;9.230;2023-11-19T12:12:58;1.40;;;1.40;;
25653;SDS011;13511;48.622;9.230;2023-11-19T12:15:25;1.60;;;1.50;;
25653;SDS011;13511;48.622;9.230;2023-11-19T12:17:52;1.90;;;1.35;;
25653;SDS011;13511;48.622;9.230;2023-11-19T12:20:20;1.70;;;1.60;;
25653;SDS011;13511;48.622;9.230;2023-11-19T12:22:46;2.05;;;1.50;;
25653;SDS011;13511;48.622;9.230;2023-11-19T12:25:14;1.55;;;1.45;;
25653;SDS011;13511;48.622;9.230;2023-11-19T12:27:50;1.95;;;1.30;;
25653;SDS011;13511;48.622;9.230;2023-11-19T12:30:18;1.17;;;1.17;;
25653;SDS011;13511;48.622;9.230;2023-11-19T12:32:47;1.20;;;1.20;;
25653;SDS011;13511;48.622;9.230;2023-11-19T12:35:14;1.20;;;1.20;;
25653;SDS011;13511;48.622;9.230;2023-11-19T12:37:41;1.50;;;1.40;;
25653;SDS011;13511;48.622;9.230;2023-11-19T12:40:25;1.70;;;1.38;;
25653;SDS011;13511;48.622;9.230;2023-11-19T12:42:53;1.20;;;1.20;;
25653;SDS011;13511;48.622;9.230;2023-11-19T12:45:19;2.47;;;1.20;;
25653;SDS011;13511;48.622;9.230;2023-11-19T12:47:47;1.38;;;1.27;;
25653;SDS011;13511;48.622;9.230;2023-11-19T12:50:14;2.38;;;1.50;;
25653;SDS011;13511;48.622;9.230;2023-11-19T12:52:42;1.20;;;1.20;;
25653;SDS011;13511;48.622;9.230;2023-11-19T12:55:27;1.38;;;1.38;;
25653;SDS011;13511;48.622;9.230;2023-11-19T12:57:53;1.20;;;1.20;;
25653;SDS011;13511;48.622;9.230;2023-11-19T13:00:20;1.30;;;1.30;;
25653;SDS011;13511;48.622;9.230;2023-11-19T13:02:47;1.40;;;1.40;;
25653;SDS011;13511;48.622;9.230;2023-11-19T13:05:30;3.95;;;1.50;;
25653;SDS011;13511;48.622;9.230;2023-11-19T13:10:26;1.40;;;1.40;;
25653;SDS011;13511;48.622;9.230;2023-11-19T13:13:05;1.30;;;1.30;;
25653;SDS011;13511;48.622;9.230;2023-11-19T13:15:32;1.73;;;1.35;;
25653;SDS011;13511;48.622;9.230;2023-11-19T13:17:59;2.55;;;1.52;;
25653;SDS011;13511;48.622;9.230;2023-11-19T13:20:25;1.40;;;1.40;;
25653;SDS011;13511;48.622;9.230;2023-11-19T13:22:58;2.83;;;1.30;;
25653;SDS011;13511;48.622;9.230;2023-11-19T13:25:24;2.83;;;1.30;;
25653;SDS011;13511;48.622;9.230;2023-11-19T13:27:50;4.82;;;2.58;;
25653;SDS011;13511;48.622;9.230;2023-11-19T13:30:16;4.10;;;1.63;;
25653;SDS011;13511;48.622;9.230;2023-11-19T13:32:43;3.42;;;1.60;;
25653;SDS011;13511;48.622;9.230;2023-11-19T13:35:11;1.83;;;1.70;;
25653;SDS011;13511;48.622;9.230;2023-11-19T13:37:37;1.85;;;1.70;;
25653;SDS011;13511;48.622;9.230;2023-11-19T13:40:03;3.85;;;1.40;;
25653;SDS011;13511;48.622;9.230;2023-11-19T13:42:29;1.63;;;1.52;;
25653;SDS011;13511;48.622;9.230;2023-11-19T13:44:55;1.60;;;1.50;;
25653;SDS011;13511;48.622;9.230;2023-11-19T13:47:21;2.15;;;1.70;;
25653;SDS011;13511;48.622;9.230;2023-11-19T13:49:48;2.03;;;1.90;;
25653;SDS011;13511;48.622;9.230;2023-11-19T13:52:14;1.30;;;1.30;;
25653;SDS011;13511;48.622;9.230;2023-11-19T13:54:40;3.95;;;1.73;;
25653;SDS011;13511;48.622;9.230;2023-11-19T13:57:06;1.95;;;1.80;;
25653;SDS011;13511;48.622;9.230;2023-11-19T13:59:32;1.50;;;1.40;;
25653;SDS011;13511;48.622;9.230;2023-11-19T14:01:58;2.13;;;1.58;;
25653;SDS011;13511;48.622;9.230;2023-11-19T14:04:24;4.47;;;1.80;;
25653;SDS011;13511;48.622;9.230;2023-11-19T14:06:51;1.75;;;1.65;;
25653;SDS011;13511;48.622;9.230;2023-11-19T14:09:20;2.25;;;1.60;;
25653;SDS011;13511;48.622;9.230;2023-11-19T14:11:46;1.90;;;1.80;;
25653;SDS011;13511;48.622;9.230;2023-11-19T14:14:12;3.75;;;1.80;;
25653;SDS011;13511;48.622;9.230;2023-11-19T14:16:38;1.80;;;1.70;;
25653;SDS011;13511;48.622;9.230;2023-11-19T14:19:05;2.03;;;1.80;;
25653;SDS011;13511;48.622;9.230;2023-11-19T14:21:31;1.70;;;1.70;;
25653;SDS011;13511;48.622;9.230;2023-11-19T14:23:57;2.92;;;1.73;;
25653;SDS011;13511;48.622;9.230;2023-11-19T14:26:23;1.88;;;1.77;;
25653;SDS011;13511;48.622;9.230;2023-11-19T14:28:49;5.78;;;2.00;;
25653;SDS011;13511;48.622;9.230;2023-11-19T14:31:15;1.90;;;1.83;;
25653;SDS011;13511;48.622;9.230;2023-11-19T14:33:41;2.08;;;1.98;;
25653;SDS011;13511;48.622;9.230;2023-11-19T14:36:07;2.20;;;2.10;;
25653;SDS011;13511;48.622;9.230;2023-11-19T14:38:33;3.42;;;1.92;;
25653;SDS011;13511;48.622;9.230;2023-11-19T14:40:59;2.15;;;2.05;;
25653;SDS011;13511;48.622;9.230;2023-11-19T14:43:25;1.80;;;1.70;;
25653;SDS011;13511;48.622;9.230;2023-11-19T14:45:51;2.10;;;2.00;;
25653;SDS011;13511;48.622;9.230;2023-11-19T14:48:17;5.05;;;1.90;;
25653;SDS011;13511;48.622;9.230;2023-11-19T14:50:43;1.80;;;1.80;;
25653;SDS011;13511;48.622;9.230;2023-11-19T14:53:10;2.40;;;1.75;;
25653;SDS011;13511;48.622;9.230;2023-11-19T14:55:36;2.00;;;1.90;;
25653;SDS011;13511;48.622;9.230;2023-11-19T14:58:02;1.95;;;1.92;;
25653;SDS011;13511;48.622;9.230;2023-11-19T15:00:28;2.15;;;2.05;;
25653;SDS011;13511;48.622;9.230;2023-11-19T15:02:54;2.90;;;1.90;;
25653;SDS011;13511;48.622;9.230;2023-11-19T15:05:20;1.60;;;1.60;;
25653;SDS011;13511;48.622;9.230;2023-11-19T15:07:47;2.92;;;1.42;;